sensor_id;sensor_type;location;lat;lon;timestamp;P1;durP1;ratioP1;P2;durP2;ratioP2
4420;SDS011;11824;51.178;13.546;2023-08-07T00:00:57;6.60;;;4.30;;
4420;SDS011;11824;51.178;13.546;2023-08-07T00:03:27;4.07;;;3.30;;
4420;SDS011;11824;51.178;13.546;2023-08-07T00:05:56;4.70;;;4.30;;
4420;SDS011;11824;51.178;13.546;2023-08-07T00:08:25;5.23;;;4.40;;
4420;SDS011;11824;51.178;13.546;2023-08-07T00:11:03;4.30;;;3.90;;
4420;SDS011;11824;51.178;13.546;2023-08-07T00:13:33;5.60;;;4.20;;
4420;SDS011;11824;51.178;13.546;2023-08-07T00:16:01;6.33;;;4.83;;
4420;SDS011;11824;51.178;13.546;2023-08-07T00:18:32;4.37;;;3.97;;
4420;SDS011;11824;51.178;13.546;2023-08-07T00:21:01;4.47;;;4.00;;
4420;SDS011;11824;51.178;13.546;2023-08-07T00:23:30;5.83;;;4.30;;
4420;SDS011;11824;51.178;13.546;2023-08-07T00:25:59;4.17;;;3.87;;
4420;SDS011;11824;51.178;13.546;2023-08-07T00:28:27;7.13;;;5.37;;
4420;SDS011;11824;51.178;13.546;2023-08-07T00:30:56;5.40;;;4.67;;
4420;SDS011;11824;51.178;13.546;2023-08-07T00:33:25;3.93;;;3.63;;
4420;SDS011;11824;51.178;13.546;2023-08-07T00:35:55;7.00;;;5.20;;
4420;SDS011;11824;51.178;13.546;2023-08-07T00:38:25;5.33;;;4.50;;
4420;SDS011;11824;51.178;13.546;2023-08-07T00:40:54;5.27;;;4.50;;
4420;SDS011;11824;51.178;13.546;2023-08-07T00:43:23;8.97;;;5.07;;
4420;SDS011;11824;51.178;13.546;2023-08-07T00:45:51;5.40;;;4.60;;
4420;SDS011;11824;51.178;13.546;2023-08-07T00:48:20;5.60;;;5.10;;
4420;SDS011;11824;51.178;13.546;2023-08-07T00:50:49;5.40;;;4.90;;
4420;SDS011;11824;51.178;13.546;2023-08-07T00:53:21;5.50;;;4.97;;
4420;SDS011;11824;51.178;13.546;2023-08-07T00:55:50;4.80;;;4.40;;
4420;SDS011;11824;51.178;13.546;2023-08-07T00:58:19;9.90;;;4.20;;
4420;SDS011;11824;51.178;13.546;2023-08-07T01:00:48;5.07;;;4.20;;
4420;SDS011;11824;51.178;13.546;2023-08-07T01:03:16;5.13;;;4.10;;
4420;SDS011;11824;51.178;13.546;2023-08-07T01:05:45;5.63;;;4.20;;
4420;SDS011;11824;51.178;13.546;2023-08-07T01:08:14;4.40;;;3.87;;
4420;SDS011;11824;51.178;13.546;2023-08-07T01:10:48;4.50;;;3.30;;
4420;SDS011;11824;51.178;13.546;2023-08-07T01:13:31;4.20;;;3.77;;
4420;SDS011;11824;51.178;13.546;2023-08-07T01:16:04;4.40;;;3.50;;
4420;SDS011;11824;51.178;13.546;2023-08-07T01:18:41;3.50;;;3.10;;
4420;SDS011;11824;51.178;13.546;2023-08-07T01:21:16;4.77;;;3.60;;
4420;SDS011;11824;51.178;13.546;2023-08-07T01:23:47;8.20;;;2.93;;
4420;SDS011;11824;51.178;13.546;2023-08-07T01:26:18;4.17;;;3.77;;
4420;SDS011;11824;51.178;13.546;2023-08-07T01:28:50;7.23;;;3.40;;
4420;SDS011;11824;51.178;13.546;2023-08-07T01:31:25;5.77;;;3.70;;
4420;SDS011;11824;51.178;13.546;2023-08-07T01:33:57;7.83;;;4.23;;
4420;SDS011;11824;51.178;13.546;2023-08-07T01:36:29;6.47;;;4.20;;
4420;SDS011;11824;51.178;13.546;2023-08-07T01:39:00;6.50;;;4.90;;
4420;SDS011;11824;51.178;13.546;2023-08-07T01:41:33;4.87;;;4.20;;
4420;SDS011;11824;51.178;13.546;2023-08-07T01:44:03;5.77;;;5.10;;
4420;SDS011;11824;51.178;13.546;2023-08-07T01:46:32;5.73;;;5.13;;
4420;SDS011;11824;51.178;13.546;2023-08-07T01:49:01;5.30;;;4.73;;
4420;SDS011;11824;51.178;13.546;2023-08-07T01:51:29;8.80;;;5.17;;
4420;SDS011;11824;51.178;13.546;2023-08-07T01:53:58;6.73;;;5.30;;
4420;SDS011;11824;51.178;13.546;2023-08-07T01:56:29;7.97;;;5.37;;
4420;SDS011;11824;51.178;13.546;2023-08-07T01:58:57;9.57;;;5.50;;
4420;SDS011;11824;51.178;13.546;2023-08-07T02:01:26;7.63;;;5.50;;
4420;SDS011;11824;51.178;13.546;2023-08-07T02:03:55;8.20;;;5.53;;
4420;SDS011;11824;51.178;13.546;2023-08-07T02:06:24;6.27;;;5.40;;
4420;SDS011;11824;51.178;13.546;2023-08-07T02:08:52;8.57;;;5.80;;
4420;SDS011;11824;51.178;13.546;2023-08-07T02:11:23;6.47;;;5.87;;
4420;SDS011;11824;51.178;13.546;2023-08-07T02:13:51;8.40;;;5.47;;
4420;SDS011;11824;51.178;13.546;2023-08-07T02:16:20;5.40;;;4.90;;
4420;SDS011;11824;51.178;13.546;2023-08-07T02:18:49;11.93;;;5.93;;
4420;SDS011;11824;51.178;13.546;2023-08-07T02:21:18;5.93;;;5.43;;
4420;SDS011;11824;51.178;13.546;2023-08-07T02:23:46;13.10;;;5.70;;
4420;SDS011;11824;51.178;13.546;2023-08-07T02:26:15;8.83;;;6.90;;
4420;SDS011;11824;51.178;13.546;2023-08-07T02:28:45;5.87;;;5.30;;
4420;SDS011;11824;51.178;13.546;2023-08-07T02:31:14;15.33;;;6.47;;
4420;SDS011;11824;51.178;13.546;2023-08-07T02:33:43;5.70;;;5.20;;
4420;SDS011;11824;51.178;13.546;2023-08-07T02:36:11;11.50;;;6.53;;
4420;SDS011;11824;51.178;13.546;2023-08-07T02:38:40;6.87;;;5.40;;
4420;SDS011;11824;51.178;13.546;2023-08-07T02:41:09;8.60;;;5.73;;
4420;SDS011;11824;51.178;13.546;2023-08-07T02:43:38;4.40;;;3.80;;
4420;SDS011;11824;51.178;13.546;2023-08-07T02:46:08;7.67;;;5.10;;
4420;SDS011;11824;51.178;13.546;2023-08-07T02:48:36;14.50;;;6.77;;
4420;SDS011;11824;51.178;13.546;2023-08-07T02:51:06;11.47;;;5.10;;
4420;SDS011;11824;51.178;13.546;2023-08-07T02:53:35;12.03;;;5.00;;
4420;SDS011;11824;51.178;13.546;2023-08-07T02:56:03;6.90;;;3.00;;
4420;SDS011;11824;51.178;13.546;2023-08-07T02:58:32;6.00;;;4.97;;
4420;SDS011;11824;51.178;13.546;2023-08-07T03:01:03;4.50;;;2.80;;
4420;SDS011;11824;51.178;13.546;2023-08-07T03:03:34;5.17;;;3.20;;
4420;SDS011;11824;51.178;13.546;2023-08-07T03:06:03;8.43;;;3.40;;
4420;SDS011;11824;51.178;13.546;2023-08-07T03:08:32;11.03;;;3.20;;
4420;SDS011;11824;51.178;13.546;2023-08-07T03:11:01;9.53;;;3.67;;
4420;SDS011;11824;51.178;13.546;2023-08-07T03:13:30;4.37;;;3.97;;
4420;SDS011;11824;51.178;13.546;2023-08-07T03:15:59;3.77;;;3.13;;
4420;SDS011;11824;51.178;13.546;2023-08-07T03:18:28;3.73;;;3.13;;
4420;SDS011;11824;51.178;13.546;2023-08-07T03:20:59;8.93;;;3.30;;
4420;SDS011;11824;51.178;13.546;2023-08-07T03:23:28;7.97;;;3.20;;
4420;SDS011;11824;51.178;13.546;2023-08-07T03:26:06;5.33;;;4.50;;
4420;SDS011;11824;51.178;13.546;2023-08-07T03:28:39;7.80;;;3.27;;
4420;SDS011;11824;51.178;13.546;2023-08-07T03:31:07;4.90;;;3.30;;
4420;SDS011;11824;51.178;13.546;2023-08-07T03:33:36;9.37;;;5.00;;
4420;SDS011;11824;51.178;13.546;2023-08-07T03:36:06;6.30;;;4.50;;
4420;SDS011;11824;51.178;13.546;2023-08-07T03:38:35;7.27;;;4.27;;
4420;SDS011;11824;51.178;13.546;2023-08-07T03:41:04;5.20;;;4.70;;
4420;SDS011;11824;51.178;13.546;2023-08-07T03:43:33;4.87;;;4.20;;
4420;SDS011;11824;51.178;13.546;2023-08-07T03:46:01;4.80;;;4.30;;
4420;SDS011;11824;51.178;13.546;2023-08-07T03:48:30;4.67;;;4.27;;
4420;SDS011;11824;51.178;13.546;2023-08-07T03:51:02;4.63;;;3.90;;
4420;SDS011;11824;51.178;13.546;2023-08-07T03:53:33;11.43;;;4.93;;
4420;SDS011;11824;51.178;13.546;2023-08-07T03:56:02;7.87;;;5.13;;
4420;SDS011;11824;51.178;13.546;2023-08-07T03:58:31;9.83;;;5.83;;
4420;SDS011;11824;51.178;13.546;2023-08-07T04:01:00;9.47;;;5.97;;
4420;SDS011;11824;51.178;13.546;2023-08-07T04:03:29;10.90;;;6.70;;
4420;SDS011;11824;51.178;13.546;2023-08-07T04:05:58;8.80;;;7.37;;
4420;SDS011;11824;51.178;13.546;2023-08-07T04:08:28;10.57;;;5.50;;
4420;SDS011;11824;51.178;13.546;2023-08-07T04:10:59;8.63;;;7.30;;
4420;SDS011;11824;51.178;13.546;2023-08-07T04:13:28;16.60;;;8.60;;
4420;SDS011;11824;51.178;13.546;2023-08-07T04:15:58;11.13;;;7.87;;
4420;SDS011;11824;51.178;13.546;2023-08-07T04:18:30;12.63;;;7.27;;
4420;SDS011;11824;51.178;13.546;2023-08-07T04:20:59;12.80;;;7.70;;
4420;SDS011;11824;51.178;13.546;2023-08-07T04:23:28;12.27;;;7.93;;
4420;SDS011;11824;51.178;13.546;2023-08-07T04:25:59;10.73;;;7.50;;
4420;SDS011;11824;51.178;13.546;2023-08-07T04:28:28;16.50;;;9.97;;
4420;SDS011;11824;51.178;13.546;2023-08-07T04:30:57;12.60;;;9.73;;
4420;SDS011;11824;51.178;13.546;2023-08-07T04:33:26;14.23;;;9.47;;
4420;SDS011;11824;51.178;13.546;2023-08-07T04:35:55;11.60;;;9.53;;
4420;SDS011;11824;51.178;13.546;2023-08-07T04:38:24;13.13;;;9.97;;
4420;SDS011;11824;51.178;13.546;2023-08-07T04:40:53;15.43;;;10.60;;
4420;SDS011;11824;51.178;13.546;2023-08-07T04:43:23;14.57;;;9.90;;
4420;SDS011;11824;51.178;13.546;2023-08-07T04:45:52;12.60;;;9.00;;
4420;SDS011;11824;51.178;13.546;2023-08-07T04:48:21;14.73;;;9.87;;
4420;SDS011;11824;51.178;13.546;2023-08-07T04:50:51;17.43;;;10.67;;
4420;SDS011;11824;51.178;13.546;2023-08-07T04:53:20;12.90;;;10.70;;
4420;SDS011;11824;51.178;13.546;2023-08-07T04:55:49;16.60;;;9.13;;
4420;SDS011;11824;51.178;13.546;2023-08-07T04:58:18;13.83;;;9.00;;
4420;SDS011;11824;51.178;13.546;2023-08-07T05:00:48;14.33;;;10.77;;
4420;SDS011;11824;51.178;13.546;2023-08-07T05:03:21;15.33;;;11.00;;
4420;SDS011;11824;51.178;13.546;2023-08-07T05:05:50;10.70;;;9.37;;
4420;SDS011;11824;51.178;13.546;2023-08-07T05:08:25;11.70;;;9.63;;
4420;SDS011;11824;51.178;13.546;2023-08-07T05:10:53;10.67;;;9.27;;
4420;SDS011;11824;51.178;13.546;2023-08-07T05:13:22;12.10;;;9.20;;
4420;SDS011;11824;51.178;13.546;2023-08-07T05:15:52;20.77;;;8.70;;
4420;SDS011;11824;51.178;13.546;2023-08-07T05:18:21;13.13;;;8.67;;
4420;SDS011;11824;51.178;13.546;2023-08-07T05:20:50;10.83;;;7.77;;
4420;SDS011;11824;51.178;13.546;2023-08-07T05:23:18;13.20;;;7.10;;
4420;SDS011;11824;51.178;13.546;2023-08-07T05:25:47;10.50;;;7.43;;
4420;SDS011;11824;51.178;13.546;2023-08-07T05:28:16;8.33;;;7.53;;
4420;SDS011;11824;51.178;13.546;2023-08-07T05:30:45;8.23;;;7.43;;
4420;SDS011;11824;51.178;13.546;2023-08-07T05:33:15;11.77;;;7.33;;
4420;SDS011;11824;51.178;13.546;2023-08-07T05:35:44;9.33;;;6.07;;
4420;SDS011;11824;51.178;13.546;2023-08-07T05:38:12;8.30;;;6.33;;
4420;SDS011;11824;51.178;13.546;2023-08-07T05:40:41;8.40;;;6.13;;
4420;SDS011;11824;51.178;13.546;2023-08-07T05:43:10;5.30;;;4.53;;
4420;SDS011;11824;51.178;13.546;2023-08-07T05:45:39;7.90;;;5.70;;
4420;SDS011;11824;51.178;13.546;2023-08-07T05:48:09;10.60;;;5.63;;
4420;SDS011;11824;51.178;13.546;2023-08-07T05:50:39;5.83;;;5.17;;
4420;SDS011;11824;51.178;13.546;2023-08-07T05:53:08;6.07;;;5.47;;
4420;SDS011;11824;51.178;13.546;2023-08-07T05:55:38;5.50;;;3.43;;
4420;SDS011;11824;51.178;13.546;2023-08-07T05:58:08;7.60;;;4.97;;
4420;SDS011;11824;51.178;13.546;2023-08-07T06:00:37;4.60;;;4.20;;
4420;SDS011;11824;51.178;13.546;2023-08-07T06:03:06;4.50;;;3.97;;
4420;SDS011;11824;51.178;13.546;2023-08-07T06:05:35;7.53;;;4.67;;
4420;SDS011;11824;51.178;13.546;2023-08-07T06:08:05;5.00;;;3.57;;
4420;SDS011;11824;51.178;13.546;2023-08-07T06:10:34;9.73;;;4.77;;
4420;SDS011;11824;51.178;13.546;2023-08-07T06:13:02;5.27;;;4.50;;
4420;SDS011;11824;51.178;13.546;2023-08-07T06:15:31;6.83;;;4.97;;
4420;SDS011;11824;51.178;13.546;2023-08-07T06:18:00;8.83;;;4.63;;
4420;SDS011;11824;51.178;13.546;2023-08-07T06:20:29;5.10;;;4.63;;
4420;SDS011;11824;51.178;13.546;2023-08-07T06:22:58;8.47;;;5.03;;
4420;SDS011;11824;51.178;13.546;2023-08-07T06:25:28;5.83;;;5.07;;
4420;SDS011;11824;51.178;13.546;2023-08-07T06:27:57;4.40;;;4.00;;
4420;SDS011;11824;51.178;13.546;2023-08-07T06:30:32;13.30;;;4.90;;
4420;SDS011;11824;51.178;13.546;2023-08-07T06:33:04;3.87;;;3.60;;
4420;SDS011;11824;51.178;13.546;2023-08-07T06:35:37;5.63;;;4.00;;
4420;SDS011;11824;51.178;13.546;2023-08-07T06:38:05;5.93;;;3.87;;
4420;SDS011;11824;51.178;13.546;2023-08-07T06:40:36;5.20;;;3.43;;
4420;SDS011;11824;51.178;13.546;2023-08-07T06:43:06;5.70;;;3.60;;
4420;SDS011;11824;51.178;13.546;2023-08-07T06:45:34;3.97;;;3.57;;
4420;SDS011;11824;51.178;13.546;2023-08-07T06:48:03;3.30;;;3.10;;
4420;SDS011;11824;51.178;13.546;2023-08-07T06:50:32;4.57;;;3.80;;
4420;SDS011;11824;51.178;13.546;2023-08-07T06:53:01;4.63;;;3.87;;
4420;SDS011;11824;51.178;13.546;2023-08-07T06:55:30;4.43;;;3.10;;
4420;SDS011;11824;51.178;13.546;2023-08-07T06:58:00;4.83;;;3.00;;
4420;SDS011;11824;51.178;13.546;2023-08-07T07:00:29;4.00;;;3.10;;
4420;SDS011;11824;51.178;13.546;2023-08-07T07:03:00;4.70;;;2.63;;
4420;SDS011;11824;51.178;13.546;2023-08-07T07:05:29;6.13;;;3.37;;
4420;SDS011;11824;51.178;13.546;2023-08-07T07:07:58;3.37;;;3.07;;
4420;SDS011;11824;51.178;13.546;2023-08-07T07:10:27;3.23;;;2.93;;
4420;SDS011;11824;51.178;13.546;2023-08-07T07:12:55;2.80;;;2.53;;
4420;SDS011;11824;51.178;13.546;2023-08-07T07:15:28;8.63;;;3.00;;
4420;SDS011;11824;51.178;13.546;2023-08-07T07:17:57;4.27;;;2.83;;
4420;SDS011;11824;51.178;13.546;2023-08-07T07:20:26;2.60;;;2.40;;
4420;SDS011;11824;51.178;13.546;2023-08-07T07:22:55;4.27;;;3.00;;
4420;SDS011;11824;51.178;13.546;2023-08-07T07:25:23;4.33;;;3.10;;
4420;SDS011;11824;51.178;13.546;2023-08-07T07:27:52;6.73;;;2.47;;
4420;SDS011;11824;51.178;13.546;2023-08-07T07:30:21;3.93;;;2.70;;
4420;SDS011;11824;51.178;13.546;2023-08-07T07:32:51;5.33;;;2.43;;
4420;SDS011;11824;51.178;13.546;2023-08-07T07:35:29;2.60;;;2.40;;
4420;SDS011;11824;51.178;13.546;2023-08-07T07:38:22;2.07;;;1.87;;
4420;SDS011;11824;51.178;13.546;2023-08-07T07:40:58;1.93;;;1.83;;
4420;SDS011;11824;51.178;13.546;2023-08-07T07:43:39;2.40;;;2.20;;
4420;SDS011;11824;51.178;13.546;2023-08-07T07:46:36;3.57;;;2.13;;
4420;SDS011;11824;51.178;13.546;2023-08-07T07:49:11;2.90;;;2.00;;
4420;SDS011;11824;51.178;13.546;2023-08-07T07:51:45;2.53;;;1.73;;
4420;SDS011;11824;51.178;13.546;2023-08-07T07:54:24;2.07;;;1.53;;
4420;SDS011;11824;51.178;13.546;2023-08-07T07:56:54;3.97;;;2.20;;
4420;SDS011;11824;51.178;13.546;2023-08-07T07:59:26;2.87;;;1.70;;
4420;SDS011;11824;51.178;13.546;2023-08-07T08:02:11;2.23;;;1.43;;
4420;SDS011;11824;51.178;13.546;2023-08-07T08:04:56;4.90;;;1.70;;
4420;SDS011;11824;51.178;13.546;2023-08-07T08:07:28;1.73;;;1.33;;
4420;SDS011;11824;51.178;13.546;2023-08-07T08:09:58;2.13;;;1.90;;
4420;SDS011;11824;51.178;13.546;2023-08-07T08:12:29;2.73;;;2.33;;
4420;SDS011;11824;51.178;13.546;2023-08-07T08:15:00;2.20;;;2.00;;
4420;SDS011;11824;51.178;13.546;2023-08-07T08:17:32;2.40;;;1.90;;
4420;SDS011;11824;51.178;13.546;2023-08-07T08:20:04;5.77;;;1.83;;
4420;SDS011;11824;51.178;13.546;2023-08-07T08:22:33;4.47;;;2.17;;
4420;SDS011;11824;51.178;13.546;2023-08-07T08:25:03;2.57;;;2.10;;
4420;SDS011;11824;51.178;13.546;2023-08-07T08:27:33;1.67;;;1.57;;
4420;SDS011;11824;51.178;13.546;2023-08-07T08:30:02;2.17;;;1.97;;
4420;SDS011;11824;51.178;13.546;2023-08-07T08:32:31;7.03;;;1.90;;
4420;SDS011;11824;51.178;13.546;2023-08-07T08:35:00;5.23;;;2.03;;
4420;SDS011;11824;51.178;13.546;2023-08-07T08:37:30;2.80;;;1.67;;
4420;SDS011;11824;51.178;13.546;2023-08-07T08:39:59;3.83;;;1.77;;
4420;SDS011;11824;51.178;13.546;2023-08-07T08:42:28;1.87;;;1.60;;
4420;SDS011;11824;51.178;13.546;2023-08-07T08:44:57;1.97;;;1.77;;
4420;SDS011;11824;51.178;13.546;2023-08-07T08:47:28;1.70;;;1.50;;
4420;SDS011;11824;51.178;13.546;2023-08-07T08:50:02;3.70;;;1.70;;
4420;SDS011;11824;51.178;13.546;2023-08-07T08:52:38;2.13;;;1.60;;
4420;SDS011;11824;51.178;13.546;2023-08-07T08:55:09;4.93;;;2.10;;
4420;SDS011;11824;51.178;13.546;2023-08-07T08:57:39;2.17;;;1.50;;
4420;SDS011;11824;51.178;13.546;2023-08-07T09:00:09;3.67;;;1.70;;
4420;SDS011;11824;51.178;13.546;2023-08-07T09:02:45;2.60;;;1.20;;
4420;SDS011;11824;51.178;13.546;2023-08-07T09:05:14;1.50;;;1.40;;
4420;SDS011;11824;51.178;13.546;2023-08-07T09:07:46;2.17;;;1.30;;
4420;SDS011;11824;51.178;13.546;2023-08-07T09:10:15;4.10;;;1.30;;
4420;SDS011;11824;51.178;13.546;2023-08-07T09:12:48;1.40;;;1.30;;
4420;SDS011;11824;51.178;13.546;2023-08-07T09:15:21;9.87;;;5.53;;
4420;SDS011;11824;51.178;13.546;2023-08-07T09:17:53;2.10;;;1.50;;
4420;SDS011;11824;51.178;13.546;2023-08-07T09:20:22;2.00;;;1.67;;
4420;SDS011;11824;51.178;13.546;2023-08-07T09:22:53;1.77;;;1.30;;
4420;SDS011;11824;51.178;13.546;2023-08-07T09:25:28;3.63;;;1.40;;
4420;SDS011;11824;51.178;13.546;2023-08-07T09:27:57;2.03;;;1.10;;
4420;SDS011;11824;51.178;13.546;2023-08-07T09:30:31;4.03;;;2.00;;
4420;SDS011;11824;51.178;13.546;2023-08-07T09:33:01;3.00;;;1.53;;
4420;SDS011;11824;51.178;13.546;2023-08-07T09:35:31;1.30;;;1.20;;
4420;SDS011;11824;51.178;13.546;2023-08-07T09:38:02;2.10;;;0.90;;
4420;SDS011;11824;51.178;13.546;2023-08-07T09:40:30;1.57;;;1.47;;
4420;SDS011;11824;51.178;13.546;2023-08-07T09:43:00;2.00;;;1.50;;
4420;SDS011;11824;51.178;13.546;2023-08-07T09:45:30;1.77;;;1.67;;
4420;SDS011;11824;51.178;13.546;2023-08-07T09:48:01;2.07;;;1.37;;
4420;SDS011;11824;51.178;13.546;2023-08-07T09:50:32;1.30;;;1.13;;
4420;SDS011;11824;51.178;13.546;2023-08-07T09:53:03;1.57;;;1.47;;
4420;SDS011;11824;51.178;13.546;2023-08-07T09:55:32;2.00;;;1.30;;
4420;SDS011;11824;51.178;13.546;2023-08-07T09:58:01;1.40;;;1.30;;
4420;SDS011;11824;51.178;13.546;2023-08-07T10:00:32;1.63;;;1.40;;
4420;SDS011;11824;51.178;13.546;2023-08-07T10:03:02;5.63;;;1.00;;
4420;SDS011;11824;51.178;13.546;2023-08-07T10:05:32;2.03;;;1.67;;
4420;SDS011;11824;51.178;13.546;2023-08-07T10:08:01;2.20;;;1.33;;
4420;SDS011;11824;51.178;13.546;2023-08-07T10:10:32;2.03;;;1.40;;
4420;SDS011;11824;51.178;13.546;2023-08-07T10:13:01;1.67;;;1.20;;
4420;SDS011;11824;51.178;13.546;2023-08-07T10:15:44;3.17;;;1.00;;
4420;SDS011;11824;51.178;13.546;2023-08-07T10:18:15;4.27;;;1.50;;
4420;SDS011;11824;51.178;13.546;2023-08-07T10:20:54;1.30;;;1.20;;
4420;SDS011;11824;51.178;13.546;2023-08-07T10:23:26;2.03;;;1.40;;
4420;SDS011;11824;51.178;13.546;2023-08-07T10:25:54;2.40;;;1.33;;
4420;SDS011;11824;51.178;13.546;2023-08-07T10:28:24;1.67;;;0.97;;
4420;SDS011;11824;51.178;13.546;2023-08-07T10:30:55;4.37;;;1.30;;
4420;SDS011;11824;51.178;13.546;2023-08-07T10:33:25;2.70;;;1.33;;
4420;SDS011;11824;51.178;13.546;2023-08-07T10:35:54;0.90;;;0.90;;
4420;SDS011;11824;51.178;13.546;2023-08-07T10:38:27;2.07;;;1.40;;
4420;SDS011;11824;51.178;13.546;2023-08-07T10:40:58;2.40;;;1.37;;
4420;SDS011;11824;51.178;13.546;2023-08-07T10:43:28;5.70;;;1.47;;
4420;SDS011;11824;51.178;13.546;2023-08-07T10:46:04;2.10;;;1.30;;
4420;SDS011;11824;51.178;13.546;2023-08-07T10:48:40;10.17;;;1.67;;
4420;SDS011;11824;51.178;13.546;2023-08-07T10:51:12;2.07;;;1.60;;
4420;SDS011;11824;51.178;13.546;2023-08-07T10:53:44;1.40;;;1.30;;
4420;SDS011;11824;51.178;13.546;2023-08-07T10:56:16;2.07;;;1.60;;
4420;SDS011;11824;51.178;13.546;2023-08-07T10:58:50;1.57;;;1.47;;
4420;SDS011;11824;51.178;13.546;2023-08-07T11:01:20;3.20;;;1.60;;
4420;SDS011;11824;51.178;13.546;2023-08-07T11:03:50;1.43;;;1.33;;
4420;SDS011;11824;51.178;13.546;2023-08-07T11:06:23;1.33;;;0.97;;
4420;SDS011;11824;51.178;13.546;2023-08-07T11:08:55;2.20;;;1.37;;
4420;SDS011;11824;51.178;13.546;2023-08-07T11:11:26;2.03;;;1.53;;
4420;SDS011;11824;51.178;13.546;2023-08-07T11:13:55;1.13;;;1.03;;
4420;SDS011;11824;51.178;13.546;2023-08-07T11:16:23;2.90;;;1.30;;
4420;SDS011;11824;51.178;13.546;2023-08-07T11:18:55;2.23;;;1.37;;
4420;SDS011;11824;51.178;13.546;2023-08-07T11:21:24;1.40;;;1.30;;
4420;SDS011;11824;51.178;13.546;2023-08-07T11:23:55;2.60;;;1.07;;
4420;SDS011;11824;51.178;13.546;2023-08-07T11:26:24;2.30;;;1.30;;
4420;SDS011;11824;51.178;13.546;2023-08-07T11:28:54;1.33;;;1.23;;
4420;SDS011;11824;51.178;13.546;2023-08-07T11:31:24;12.33;;;2.80;;
4420;SDS011;11824;51.178;13.546;2023-08-07T11:33:54;3.30;;;2.23;;
4420;SDS011;11824;51.178;13.546;2023-08-07T11:36:24;10.97;;;2.50;;
4420;SDS011;11824;51.178;13.546;2023-08-07T11:38:52;3.10;;;1.57;;
4420;SDS011;11824;51.178;13.546;2023-08-07T11:41:23;4.07;;;1.57;;
4420;SDS011;11824;51.178;13.546;2023-08-07T11:43:51;2.47;;;1.33;;
4420;SDS011;11824;51.178;13.546;2023-08-07T11:46:20;4.50;;;1.43;;
4420;SDS011;11824;51.178;13.546;2023-08-07T11:48:49;2.63;;;1.50;;
4420;SDS011;11824;51.178;13.546;2023-08-07T11:51:21;2.83;;;1.80;;
4420;SDS011;11824;51.178;13.546;2023-08-07T11:53:50;2.00;;;1.60;;
4420;SDS011;11824;51.178;13.546;2023-08-07T11:56:24;1.80;;;1.50;;
4420;SDS011;11824;51.178;13.546;2023-08-07T11:58:53;3.80;;;1.73;;
4420;SDS011;11824;51.178;13.546;2023-08-07T12:01:22;1.57;;;1.30;;
4420;SDS011;11824;51.178;13.546;2023-08-07T12:03:53;1.80;;;1.47;;
4420;SDS011;11824;51.178;13.546;2023-08-07T12:06:23;3.03;;;1.43;;
4420;SDS011;11824;51.178;13.546;2023-08-07T12:08:53;3.17;;;1.50;;
4420;SDS011;11824;51.178;13.546;2023-08-07T12:11:25;1.70;;;0.90;;
4420;SDS011;11824;51.178;13.546;2023-08-07T12:16:56;1.10;;;1.00;;
4420;SDS011;11824;51.178;13.546;2023-08-07T12:19:34;2.40;;;1.60;;
4420;SDS011;11824;51.178;13.546;2023-08-07T12:22:05;1.57;;;1.30;;
4420;SDS011;11824;51.178;13.546;2023-08-07T12:24:35;1.00;;;0.90;;
4420;SDS011;11824;51.178;13.546;2023-08-07T12:27:06;1.63;;;1.00;;
4420;SDS011;11824;51.178;13.546;2023-08-07T12:29:35;1.47;;;0.97;;
4420;SDS011;11824;51.178;13.546;2023-08-07T12:32:04;1.37;;;1.27;;
4420;SDS011;11824;51.178;13.546;2023-08-07T12:34:33;1.67;;;0.83;;
4420;SDS011;11824;51.178;13.546;2023-08-07T12:37:24;1.13;;;1.03;;
4420;SDS011;11824;51.178;13.546;2023-08-07T12:39:53;1.40;;;1.00;;
4420;SDS011;11824;51.178;13.546;2023-08-07T12:42:25;6.13;;;1.10;;
4420;SDS011;11824;51.178;13.546;2023-08-07T12:44:54;3.73;;;1.10;;
4420;SDS011;11824;51.178;13.546;2023-08-07T12:47:24;1.43;;;0.87;;
4420;SDS011;11824;51.178;13.546;2023-08-07T12:49:53;2.13;;;1.00;;
4420;SDS011;11824;51.178;13.546;2023-08-07T12:52:22;0.77;;;0.77;;
4420;SDS011;11824;51.178;13.546;2023-08-07T12:54:51;6.17;;;1.40;;
4420;SDS011;11824;51.178;13.546;2023-08-07T12:57:27;1.00;;;1.00;;
4420;SDS011;11824;51.178;13.546;2023-08-07T12:59:57;1.30;;;1.20;;
4420;SDS011;11824;51.178;13.546;2023-08-07T13:02:25;1.63;;;1.10;;
4420;SDS011;11824;51.178;13.546;2023-08-07T13:04:54;3.37;;;0.90;;
4420;SDS011;11824;51.178;13.546;2023-08-07T13:07:23;1.23;;;1.10;;
4420;SDS011;11824;51.178;13.546;2023-08-07T13:09:52;1.10;;;1.00;;
4420;SDS011;11824;51.178;13.546;2023-08-07T13:12:22;1.43;;;1.03;;
4420;SDS011;11824;51.178;13.546;2023-08-07T13:14:52;2.33;;;0.90;;
4420;SDS011;11824;51.178;13.546;2023-08-07T13:17:21;4.80;;;1.30;;
4420;SDS011;11824;51.178;13.546;2023-08-07T13:19:49;2.87;;;1.07;;
4420;SDS011;11824;51.178;13.546;2023-08-07T13:22:18;1.53;;;0.80;;
4420;SDS011;11824;51.178;13.546;2023-08-07T13:24:47;5.30;;;1.20;;
4420;SDS011;11824;51.178;13.546;2023-08-07T13:27:15;0.93;;;0.73;;
4420;SDS011;11824;51.178;13.546;2023-08-07T13:29:44;2.93;;;0.97;;
4420;SDS011;11824;51.178;13.546;2023-08-07T13:32:15;3.97;;;1.10;;
4420;SDS011;11824;51.178;13.546;2023-08-07T13:34:46;3.13;;;0.97;;
4420;SDS011;11824;51.178;13.546;2023-08-07T13:37:15;0.90;;;0.90;;
4420;SDS011;11824;51.178;13.546;2023-08-07T13:39:44;3.13;;;1.27;;
4420;SDS011;11824;51.178;13.546;2023-08-07T13:42:15;3.47;;;1.13;;
4420;SDS011;11824;51.178;13.546;2023-08-07T13:44:44;3.23;;;1.47;;
4420;SDS011;11824;51.178;13.546;2023-08-07T13:47:13;1.50;;;1.40;;
4420;SDS011;11824;51.178;13.546;2023-08-07T13:49:44;3.20;;;1.73;;
4420;SDS011;11824;51.178;13.546;2023-08-07T13:52:13;4.40;;;1.40;;
4420;SDS011;11824;51.178;13.546;2023-08-07T13:54:42;6.53;;;1.10;;
4420;SDS011;11824;51.178;13.546;2023-08-07T13:57:10;6.83;;;1.40;;
4420;SDS011;11824;51.178;13.546;2023-08-07T13:59:39;2.50;;;1.07;;
4420;SDS011;11824;51.178;13.546;2023-08-07T14:02:08;3.23;;;1.30;;
4420;SDS011;11824;51.178;13.546;2023-08-07T14:04:38;2.03;;;1.20;;
4420;SDS011;11824;51.178;13.546;2023-08-07T14:07:11;2.80;;;1.50;;
4420;SDS011;11824;51.178;13.546;2023-08-07T14:09:40;3.53;;;1.60;;
4420;SDS011;11824;51.178;13.546;2023-08-07T14:12:09;3.13;;;0.90;;
4420;SDS011;11824;51.178;13.546;2023-08-07T14:14:38;4.13;;;0.93;;
4420;SDS011;11824;51.178;13.546;2023-08-07T14:17:06;1.63;;;1.30;;
4420;SDS011;11824;51.178;13.546;2023-08-07T14:19:35;1.00;;;1.00;;
4420;SDS011;11824;51.178;13.546;2023-08-07T14:22:06;2.80;;;1.23;;
4420;SDS011;11824;51.178;13.546;2023-08-07T14:24:34;1.53;;;1.00;;
4420;SDS011;11824;51.178;13.546;2023-08-07T14:27:04;2.40;;;1.20;;
4420;SDS011;11824;51.178;13.546;2023-08-07T14:29:32;1.30;;;1.20;;
4420;SDS011;11824;51.178;13.546;2023-08-07T14:32:01;1.20;;;1.10;;
4420;SDS011;11824;51.178;13.546;2023-08-07T14:34:31;1.07;;;0.97;;
4420;SDS011;11824;51.178;13.546;2023-08-07T14:36:59;1.97;;;1.23;;
4420;SDS011;11824;51.178;13.546;2023-08-07T14:39:30;1.50;;;1.40;;
4420;SDS011;11824;51.178;13.546;2023-08-07T14:41:58;3.17;;;1.00;;
4420;SDS011;11824;51.178;13.546;2023-08-07T14:44:28;1.47;;;1.10;;
4420;SDS011;11824;51.178;13.546;2023-08-07T14:46:57;1.47;;;1.10;;
4420;SDS011;11824;51.178;13.546;2023-08-07T14:49:25;1.53;;;0.90;;
4420;SDS011;11824;51.178;13.546;2023-08-07T14:51:55;1.23;;;1.13;;
4420;SDS011;11824;51.178;13.546;2023-08-07T14:54:24;2.50;;;1.00;;
4420;SDS011;11824;51.178;13.546;2023-08-07T14:56:54;1.10;;;0.80;;
4420;SDS011;11824;51.178;13.546;2023-08-07T14:59:24;1.10;;;1.00;;
4420;SDS011;11824;51.178;13.546;2023-08-07T15:01:53;1.97;;;1.10;;
4420;SDS011;11824;51.178;13.546;2023-08-07T15:04:22;1.30;;;1.00;;
4420;SDS011;11824;51.178;13.546;2023-08-07T15:06:51;1.00;;;0.90;;